createdAt,value
2023-04-16T00:02:07.982Z,15.76
2023-04-16T00:04:37.805Z,15.64
2023-04-16T00:07:04.722Z,15.61
2023-04-16T00:09:31.474Z,15.63
2023-04-16T00:11:58.304Z,15.64
2023-04-16T00:14:25.058Z,15.68
2023-04-16T00:16:51.978Z,15.48
2023-04-16T00:19:18.799Z,15.39
2023-04-16T00:21:45.527Z,15.29
2023-04-16T00:24:12.314Z,15.18
2023-04-16T00:26:39.315Z,15.11
2023-04-16T00:29:06.036Z,15.03
2023-04-16T00:31:33.869Z,14.88
2023-04-16T00:34:03.678Z,14.78
2023-04-16T00:36:30.576Z,14.82
2023-04-16T00:38:57.557Z,14.86
2023-04-16T00:41:24.433Z,14.96
2023-04-16T00:43:51.653Z,15.03
2023-04-16T00:46:21.824Z,15.09
2023-04-16T00:48:49.420Z,15.08
2023-04-16T00:51:17.054Z,15.12
2023-04-16T00:53:45.586Z,15.08
2023-04-16T00:56:17.486Z,15.13
2023-04-16T00:58:44.900Z,15.15
2023-04-16T01:01:14.217Z,15.17
2023-04-16T01:03:45.175Z,15.20
2023-04-16T01:06:12.683Z,15.21
2023-04-16T01:08:39.798Z,15.18
2023-04-16T01:11:06.770Z,15.15
2023-04-16T01:13:34.023Z,15.09
2023-04-16T01:16:01.565Z,15.10
2023-04-16T01:18:28.397Z,15.08
2023-04-16T01:20:57.651Z,14.94
2023-04-16T01:23:24.380Z,14.79
2023-04-16T01:25:51.284Z,14.60
2023-04-16T01:28:18.294Z,14.55
2023-04-16T01:30:45.929Z,14.52
2023-04-16T01:33:27.357Z,14.42
2023-04-16T01:35:54.198Z,14.31
2023-04-16T01:38:21.047Z,14.36
2023-04-16T01:40:47.849Z,14.41
2023-04-16T01:43:14.667Z,14.39
2023-04-16T01:45:42.862Z,14.52
2023-04-16T01:48:12.088Z,14.48
2023-04-16T01:50:38.982Z,14.53
2023-04-16T01:53:05.951Z,14.48
2023-04-16T01:55:34.049Z,14.38
2023-04-16T01:58:00.830Z,14.28
2023-04-16T02:00:31.839Z,14.20
2023-04-16T02:02:59.505Z,14.14
2023-04-16T02:05:28.127Z,14.05
2023-04-16T02:07:55.014Z,14.12
2023-04-16T02:10:22.221Z,14.21
2023-04-16T02:12:49.203Z,14.25
2023-04-16T02:15:16.415Z,14.23
2023-04-16T02:17:43.729Z,14.28
2023-04-16T02:20:11.263Z,14.34
2023-04-16T02:22:55.442Z,14.25
2023-04-16T02:25:24.347Z,13.88
2023-04-16T02:27:54.392Z,13.89
2023-04-16T02:30:31.240Z,13.79
2023-04-16T02:32:58.056Z,13.62
2023-04-16T02:35:24.880Z,13.66
2023-04-16T02:37:52.311Z,13.77
2023-04-16T02:40:19.378Z,13.81
2023-04-16T02:42:46.324Z,14.02
2023-04-16T02:45:13.461Z,13.85
2023-04-16T02:47:40.279Z,13.80
2023-04-16T02:50:07.833Z,13.76
2023-04-16T02:52:34.612Z,13.78
2023-04-16T02:55:01.359Z,13.62
2023-04-16T02:57:28.191Z,13.52
2023-04-16T02:59:54.928Z,13.70
2023-04-16T03:02:21.886Z,13.67
2023-04-16T03:04:48.793Z,13.70
2023-04-16T03:07:15.992Z,13.60
2023-04-16T03:09:42.815Z,13.61
2023-04-16T03:12:09.766Z,13.62
2023-04-16T03:14:36.536Z,13.60
2023-04-16T03:17:03.279Z,13.59
2023-04-16T03:19:30.186Z,13.58
2023-04-16T03:21:57.031Z,13.63
2023-04-16T03:24:23.868Z,13.71
2023-04-16T03:26:50.649Z,13.56
2023-04-16T03:29:18.229Z,13.58
2023-04-16T03:31:45.025Z,13.59
2023-04-16T03:34:12.127Z,13.62
2023-04-16T03:36:40.338Z,13.58
2023-04-16T03:39:07.310Z,13.53
2023-04-16T03:41:34.248Z,13.62
2023-04-16T03:44:02.780Z,13.63
2023-04-16T03:46:29.811Z,13.66
2023-04-16T03:48:56.920Z,13.76
2023-04-16T03:51:24.350Z,13.73
2023-04-16T03:53:51.935Z,13.76
2023-04-16T03:56:19.437Z,13.73
2023-04-16T03:58:46.177Z,13.74
2023-04-16T04:01:13.028Z,13.77
2023-04-16T04:03:40.391Z,13.69
2023-04-16T04:06:09.002Z,13.61
2023-04-16T04:08:36.033Z,13.46
2023-04-16T04:11:04.676Z,13.38
2023-04-16T04:13:32.868Z,13.42
2023-04-16T04:15:59.872Z,13.29
2023-04-16T04:18:27.718Z,13.44
2023-04-16T04:20:54.557Z,13.31
2023-04-16T04:23:25.363Z,13.47
2023-04-16T04:25:52.157Z,13.39
2023-04-16T04:28:19.030Z,13.50
2023-04-16T04:30:45.834Z,13.60
2023-04-16T04:33:13.232Z,13.57
2023-04-16T04:35:40.465Z,13.60
2023-04-16T04:38:08.907Z,13.66
2023-04-16T04:40:35.832Z,13.65
2023-04-16T04:43:04.027Z,13.65
2023-04-16T04:45:32.126Z,13.65
2023-04-16T04:47:59.283Z,13.60
2023-04-16T04:50:26.384Z,13.58
2023-04-16T04:52:53.183Z,13.66
2023-04-16T04:55:19.986Z,13.62
2023-04-16T04:57:46.995Z,13.65
2023-04-16T05:00:13.828Z,13.58
2023-04-16T05:02:54.962Z,13.53
2023-04-16T05:05:21.903Z,13.42
2023-04-16T05:07:48.736Z,13.38
2023-04-16T05:10:15.737Z,13.37
2023-04-16T05:12:42.564Z,13.40
2023-04-16T05:15:09.788Z,13.28
2023-04-16T05:17:36.925Z,13.31
2023-04-16T05:20:03.981Z,12.89
2023-04-16T05:22:30.971Z,12.86
2023-04-16T05:24:57.790Z,12.70
2023-04-16T05:27:24.476Z,12.84
2023-04-16T05:29:51.238Z,12.96
2023-04-16T05:32:18.060Z,12.73
2023-04-16T05:34:44.897Z,12.63
2023-04-16T05:37:11.696Z,12.73
2023-04-16T05:39:38.425Z,12.83
2023-04-16T05:42:05.174Z,12.86
2023-04-16T05:44:31.890Z,12.83
2023-04-16T05:46:58.667Z,12.94
2023-04-16T05:49:25.401Z,12.81
2023-04-16T05:51:52.244Z,12.97
2023-04-16T05:54:18.999Z,12.83
2023-04-16T05:56:45.873Z,13.01
2023-04-16T05:59:12.646Z,13.26
2023-04-16T06:01:39.515Z,13.29
2023-04-16T06:04:06.515Z,13.29
2023-04-16T06:06:33.344Z,13.33
2023-04-16T06:09:00.206Z,13.30
2023-04-16T06:11:27.612Z,13.26
2023-04-16T06:13:54.326Z,13.35
2023-04-16T06:16:21.192Z,13.37
2023-04-16T06:18:47.973Z,13.35
2023-04-16T06:21:14.826Z,13.44
2023-04-16T06:23:41.780Z,13.38
2023-04-16T06:26:08.501Z,13.43
2023-04-16T06:28:35.395Z,13.42
2023-04-16T06:31:02.360Z,13.47
2023-04-16T06:33:29.049Z,13.46
2023-04-16T06:35:55.906Z,13.58
2023-04-16T06:38:22.735Z,13.74
2023-04-16T06:40:49.877Z,13.88
2023-04-16T06:43:17.936Z,13.89
2023-04-16T06:45:45.154Z,14.00
2023-04-16T06:48:11.903Z,13.97
2023-04-16T06:50:39.336Z,14.03
2023-04-16T06:53:06.347Z,14.24
2023-04-16T06:55:33.039Z,14.54
2023-04-16T06:57:59.979Z,14.60
2023-04-16T07:00:26.779Z,14.74
2023-04-16T07:02:55.150Z,14.85
2023-04-16T07:05:23.259Z,14.87
2023-04-16T07:07:50.019Z,14.77
2023-04-16T07:10:16.849Z,14.94
2023-04-16T07:12:43.743Z,14.97
2023-04-16T07:15:11.213Z,14.93
2023-04-16T07:17:38.162Z,15.22
2023-04-16T07:20:05.651Z,15.38
2023-04-16T07:22:32.513Z,15.59
2023-04-16T07:24:59.255Z,15.79
2023-04-16T07:27:25.995Z,15.91
2023-04-16T07:29:52.778Z,15.90
2023-04-16T07:32:20.306Z,15.78
2023-04-16T07:34:47.056Z,15.83
2023-04-16T07:37:13.807Z,16.02
2023-04-16T07:39:40.582Z,16.19
2023-04-16T07:42:07.564Z,16.17
2023-04-16T07:44:34.348Z,16.15
2023-04-16T07:47:01.919Z,16.41
2023-04-16T07:49:30.223Z,16.43
2023-04-16T07:51:57.087Z,16.58
2023-04-16T07:54:23.889Z,16.67
2023-04-16T07:56:50.824Z,16.59
2023-04-16T07:59:23.318Z,16.70
2023-04-16T08:01:52.994Z,16.79
2023-04-16T08:04:25.045Z,16.89
2023-04-16T08:06:53.223Z,16.99
2023-04-16T08:09:21.769Z,17.16
2023-04-16T08:11:50.007Z,17.17
2023-04-16T08:14:17.780Z,17.34
2023-04-16T08:16:44.986Z,17.46
2023-04-16T08:19:11.933Z,17.34
2023-04-16T08:21:39.122Z,17.52
2023-04-16T08:24:06.082Z,17.56
2023-04-16T08:26:32.809Z,17.43
2023-04-16T08:28:59.560Z,17.61
2023-04-16T08:31:26.364Z,17.62
2023-04-16T08:33:53.259Z,17.77
2023-04-16T08:36:20.005Z,17.91
2023-04-16T08:38:47.040Z,17.99
2023-04-16T08:41:15.028Z,18.12
2023-04-16T08:43:45.675Z,18.17
2023-04-16T08:46:12.746Z,18.00
2023-04-16T08:48:42.943Z,17.97
2023-04-16T08:51:11.200Z,18.20
2023-04-16T08:53:49.656Z,18.20
2023-04-16T08:56:24.132Z,18.31
2023-04-16T08:58:54.868Z,18.57
2023-04-16T09:01:22.332Z,18.81
2023-04-16T09:03:51.292Z,19.01
2023-04-16T09:06:18.510Z,19.11
2023-04-16T09:08:46.240Z,19.29
2023-04-16T09:11:19.839Z,19.50
2023-04-16T09:13:47.804Z,19.64
2023-04-16T09:16:15.522Z,19.73
2023-04-16T09:18:42.570Z,19.83
2023-04-16T09:21:12.977Z,19.85
2023-04-16T09:23:40.630Z,19.86
2023-04-16T09:26:07.465Z,19.86
2023-04-16T09:28:45.386Z,19.54
2023-04-16T09:31:17.510Z,19.49
2023-04-16T09:34:02.445Z,19.51
2023-04-16T09:36:29.744Z,19.63
2023-04-16T09:38:58.063Z,19.66
2023-04-16T09:41:30.225Z,19.89
2023-04-16T09:44:02.485Z,19.47
2023-04-16T09:46:44.857Z,19.56
2023-04-16T09:49:15.940Z,19.59
2023-04-16T09:51:44.251Z,19.41
2023-04-16T09:54:11.251Z,19.40
2023-04-16T09:56:45.208Z,19.76
2023-04-16T09:59:19.083Z,19.86
2023-04-16T10:01:49.831Z,19.82
2023-04-16T10:04:17.111Z,19.66
2023-04-16T10:06:44.246Z,19.51
2023-04-16T10:09:11.458Z,19.11
2023-04-16T10:11:39.487Z,18.91
2023-04-16T10:14:06.334Z,18.86
2023-04-16T10:16:34.649Z,19.11
2023-04-16T10:19:02.169Z,19.03
2023-04-16T10:21:33.856Z,18.87
2023-04-16T10:24:01.919Z,18.84
2023-04-16T10:26:30.575Z,18.92
2023-04-16T10:28:59.362Z,18.85
2023-04-16T10:31:27.569Z,19.07
2023-04-16T10:33:55.210Z,19.19
2023-04-16T10:36:26.717Z,19.34
2023-04-16T10:38:58.532Z,19.44
2023-04-16T10:41:28.498Z,19.44
2023-04-16T10:44:09.955Z,19.31
2023-04-16T10:46:42.356Z,19.25
2023-04-16T10:49:23.340Z,19.20
2023-04-16T10:51:55.835Z,19.30
2023-04-16T10:54:35.356Z,19.22
2023-04-16T10:57:07.582Z,19.38
2023-04-16T10:59:39.803Z,19.42
2023-04-16T11:02:09.828Z,19.37
2023-04-16T11:04:39.308Z,19.42
2023-04-16T11:07:07.406Z,19.35
2023-04-16T11:09:49.820Z,19.52
2023-04-16T11:12:21.018Z,19.45
2023-04-16T11:14:55.316Z,19.47
2023-04-16T11:17:22.506Z,19.39
2023-04-16T11:19:49.401Z,19.26
2023-04-16T11:22:17.655Z,19.55
2023-04-16T11:24:45.701Z,19.63
2023-04-16T11:27:16.205Z,19.85
2023-04-16T11:29:44.590Z,20.05
2023-04-16T11:32:21.413Z,20.11
2023-04-16T11:34:48.229Z,20.08
2023-04-16T11:37:15.094Z,20.21
2023-04-16T11:39:49.870Z,20.21
2023-04-16T11:42:22.744Z,20.08
2023-04-16T11:44:56.733Z,20.14
2023-04-16T11:47:24.469Z,20.02
2023-04-16T11:49:51.528Z,20.30
2023-04-16T11:52:32.211Z,20.10
2023-04-16T11:54:59.824Z,20.26
2023-04-16T11:57:28.391Z,20.03
2023-04-16T12:00:01.337Z,20.18
2023-04-16T12:02:44.497Z,20.11
2023-04-16T12:05:39.054Z,20.16
2023-04-16T12:08:10.937Z,20.25
2023-04-16T12:10:53.509Z,20.33
2023-04-16T12:13:21.592Z,20.03
2023-04-16T12:15:53.580Z,20.04
2023-04-16T12:18:21.405Z,20.13
2023-04-16T12:20:48.293Z,20.13
2023-04-16T12:23:30.560Z,20.27
2023-04-16T12:26:02.505Z,20.19
2023-04-16T12:28:34.443Z,20.00
2023-04-16T12:31:02.664Z,20.11
2023-04-16T12:33:29.798Z,20.01
2023-04-16T12:35:56.889Z,19.95
2023-04-16T12:38:24.670Z,19.85
2023-04-16T12:40:51.970Z,20.11
2023-04-16T12:43:19.891Z,20.08
2023-04-16T12:45:46.898Z,20.25
2023-04-16T12:48:13.682Z,20.28
2023-04-16T12:50:40.550Z,20.38
2023-04-16T12:53:07.404Z,20.41
2023-04-16T12:55:34.240Z,20.39
2023-04-16T12:58:01.091Z,20.44
2023-04-16T13:00:27.973Z,20.53
2023-04-16T13:02:54.928Z,20.36
2023-04-16T13:05:21.764Z,20.40
2023-04-16T13:07:48.555Z,20.50
2023-04-16T13:10:15.393Z,20.51
2023-04-16T13:12:42.152Z,20.48
2023-04-16T13:15:09.665Z,20.53
2023-04-16T13:17:36.458Z,20.64
2023-04-16T13:20:03.353Z,20.81
2023-04-16T13:22:30.419Z,20.82
2023-04-16T13:24:57.207Z,20.81
2023-04-16T13:27:24.058Z,20.84
2023-04-16T13:29:50.973Z,20.58
2023-04-16T13:32:18.910Z,20.64
2023-04-16T13:34:45.841Z,20.59
2023-04-16T13:37:12.783Z,20.58
2023-04-16T13:39:39.665Z,20.53
2023-04-16T13:42:06.517Z,20.64
2023-04-16T13:44:33.284Z,20.67
2023-04-16T13:47:00.276Z,20.74
2023-04-16T13:49:27.252Z,20.57
2023-04-16T13:51:54.012Z,20.72
2023-04-16T13:54:20.738Z,20.72
2023-04-16T13:56:47.534Z,20.65
2023-04-16T13:59:15.716Z,20.65
2023-04-16T14:01:42.558Z,20.65
2023-04-16T14:04:09.540Z,20.68
2023-04-16T14:06:36.384Z,20.59
2023-04-16T14:09:04.067Z,20.63
2023-04-16T14:11:31.687Z,20.66
2023-04-16T14:13:58.537Z,20.71
2023-04-16T14:16:26.510Z,20.74
2023-04-16T14:18:53.555Z,20.77
2023-04-16T14:21:20.453Z,20.85
2023-04-16T14:23:47.174Z,20.90
2023-04-16T14:26:14.462Z,20.82
2023-04-16T14:28:41.701Z,20.92
2023-04-16T14:31:08.621Z,21.08
2023-04-16T14:33:35.440Z,21.01
2023-04-16T14:36:03.328Z,21.17
2023-04-16T14:38:31.298Z,21.12
2023-04-16T14:40:58.306Z,21.05
2023-04-16T14:43:25.141Z,21.15
2023-04-16T14:45:52.744Z,21.16
2023-04-16T14:48:19.798Z,21.31
2023-04-16T14:50:46.667Z,21.41
2023-04-16T14:53:13.842Z,21.48
2023-04-16T14:55:40.783Z,21.49
2023-04-16T14:58:07.678Z,21.53
2023-04-16T15:00:35.636Z,21.68
2023-04-16T15:03:02.643Z,21.59
2023-04-16T15:05:30.269Z,21.63
2023-04-16T15:07:57.144Z,21.72
2023-04-16T15:10:23.908Z,21.83
2023-04-16T15:12:50.894Z,21.93
2023-04-16T15:15:17.909Z,21.95
2023-04-16T15:17:44.835Z,21.94
2023-04-16T15:20:12.119Z,21.92
2023-04-16T15:22:39.360Z,21.95
2023-04-16T15:25:06.802Z,22.03
2023-04-16T15:27:33.572Z,21.95
2023-04-16T15:30:00.605Z,21.89
2023-04-16T15:32:27.396Z,21.88
2023-04-16T15:34:54.140Z,21.96
2023-04-16T15:37:20.902Z,22.04
2023-04-16T15:39:47.741Z,22.21
2023-04-16T15:42:16.792Z,22.14
2023-04-16T15:44:43.601Z,22.21
2023-04-16T15:47:10.405Z,22.24
2023-04-16T15:49:37.225Z,22.20
2023-04-16T15:52:04.217Z,22.13
2023-04-16T15:54:31.904Z,22.23
2023-04-16T15:56:59.081Z,22.30
2023-04-16T15:59:26.846Z,22.37
2023-04-16T16:01:53.818Z,22.44
2023-04-16T16:04:22.812Z,22.64
2023-04-16T16:06:50.471Z,22.70
2023-04-16T16:09:17.548Z,22.76
2023-04-16T16:11:44.471Z,22.79
2023-04-16T16:14:11.233Z,22.67
2023-04-16T16:16:38.105Z,22.70
2023-04-16T16:19:05.447Z,22.76
2023-04-16T16:21:32.562Z,22.79
2023-04-16T16:23:59.384Z,22.83
2023-04-16T16:26:26.123Z,22.83
2023-04-16T16:28:52.950Z,22.83
2023-04-16T16:31:19.815Z,22.74
2023-04-16T16:33:46.692Z,22.75
2023-04-16T16:36:13.558Z,22.77
2023-04-16T16:38:41.216Z,22.81
2023-04-16T16:41:08.454Z,22.92
2023-04-16T16:43:35.981Z,22.89
2023-04-16T16:46:02.863Z,22.76
2023-04-16T16:48:29.681Z,22.88
2023-04-16T16:50:56.556Z,22.89
2023-04-16T16:53:23.401Z,22.84
2023-04-16T16:55:50.248Z,22.80
2023-04-16T16:58:17.190Z,22.84
2023-04-16T17:00:44.122Z,22.83
2023-04-16T17:03:11.310Z,22.70
2023-04-16T17:05:38.341Z,22.47
2023-04-16T17:08:06.633Z,22.61
2023-04-16T17:10:33.440Z,22.68
2023-04-16T17:13:00.222Z,22.49
2023-04-16T17:15:27.140Z,21.92
2023-04-16T17:17:53.938Z,21.41
2023-04-16T17:20:20.910Z,21.15
2023-04-16T17:22:47.695Z,20.97
2023-04-16T17:25:14.466Z,20.53
2023-04-16T17:27:41.362Z,20.75
2023-04-16T17:30:08.674Z,20.25
2023-04-16T17:32:35.727Z,20.29
2023-04-16T17:35:04.509Z,20.04
2023-04-16T17:37:31.484Z,20.08
2023-04-16T17:39:58.176Z,19.84
2023-04-16T17:42:24.998Z,19.42
2023-04-16T17:44:51.992Z,19.42
2023-04-16T17:47:18.789Z,19.29
2023-04-16T17:49:45.707Z,19.20
2023-04-16T17:52:13.213Z,19.17
2023-04-16T17:54:40.004Z,19.20
2023-04-16T17:57:09.024Z,19.22
2023-04-16T17:59:35.918Z,19.19
2023-04-16T18:02:02.803Z,19.05
2023-04-16T18:04:29.783Z,19.04
2023-04-16T18:06:56.713Z,18.99
2023-04-16T18:09:23.507Z,18.88
2023-04-16T18:11:50.283Z,18.79
2023-04-16T18:14:20.024Z,18.79
2023-04-16T18:16:49.809Z,18.81
2023-04-16T18:19:16.631Z,18.76
2023-04-16T18:21:43.809Z,18.72
2023-04-16T18:24:11.281Z,18.43
2023-04-16T18:26:40.734Z,18.42
2023-04-16T18:29:08.091Z,18.38
2023-04-16T18:31:35.544Z,18.35
2023-04-16T18:34:02.345Z,18.41
2023-04-16T18:36:29.171Z,18.20
2023-04-16T18:39:15.682Z,18.00
2023-04-16T18:41:43.599Z,18.12
2023-04-16T18:44:11.002Z,18.14
2023-04-16T18:46:37.846Z,18.03
2023-04-16T18:49:04.709Z,17.97
2023-04-16T18:51:31.731Z,18.01
2023-04-16T18:53:58.478Z,18.07
2023-04-16T18:56:25.441Z,18.05
2023-04-16T18:58:52.292Z,18.03
2023-04-16T19:01:19.183Z,18.07
2023-04-16T19:03:46.229Z,18.12
2023-04-16T19:06:13.128Z,18.11
2023-04-16T19:08:39.981Z,18.13
2023-04-16T19:11:06.781Z,18.11
2023-04-16T19:13:33.609Z,18.06
2023-04-16T19:16:01.702Z,18.06
2023-04-16T19:18:28.659Z,18.03
2023-04-16T19:21:00.028Z,18.06
2023-04-16T19:23:27.154Z,18.06
2023-04-16T19:25:56.280Z,18.00
2023-04-16T19:28:23.718Z,18.04
2023-04-16T19:30:51.599Z,18.02
2023-04-16T19:33:18.982Z,17.98
2023-04-16T19:35:46.439Z,18.00
2023-04-16T19:38:13.527Z,17.96
2023-04-16T19:40:41.091Z,17.88
2023-04-16T19:43:07.907Z,17.90
2023-04-16T19:45:36.248Z,17.93
2023-04-16T19:48:03.075Z,17.88
2023-04-16T19:50:29.917Z,17.92
2023-04-16T19:52:56.642Z,17.91
2023-04-16T19:55:23.447Z,17.91
2023-04-16T19:57:50.296Z,17.82
2023-04-16T20:00:17.370Z,17.87
2023-04-16T20:02:44.227Z,17.91
2023-04-16T20:05:11.337Z,17.88
2023-04-16T20:07:38.160Z,17.87
2023-04-16T20:10:05.543Z,17.83
2023-04-16T20:12:32.312Z,17.77
2023-04-16T20:14:59.350Z,17.80
2023-04-16T20:17:26.638Z,17.80
2023-04-16T20:19:53.462Z,17.84
2023-04-16T20:22:20.542Z,17.86
2023-04-16T20:24:48.133Z,17.86
2023-04-16T20:27:15.499Z,17.86
2023-04-16T20:29:42.470Z,17.85
2023-04-16T20:32:09.175Z,17.76
2023-04-16T20:34:36.723Z,17.67
2023-04-16T20:37:04.471Z,17.55
2023-04-16T20:39:34.292Z,17.52
2023-04-16T20:42:04.205Z,17.46
2023-04-16T20:44:40.277Z,17.50
2023-04-16T20:47:11.683Z,17.50
2023-04-16T20:49:38.547Z,17.45
2023-04-16T20:52:07.285Z,17.42
2023-04-16T20:54:34.129Z,17.45
2023-04-16T20:57:01.914Z,17.47
2023-04-16T20:59:29.530Z,17.44
2023-04-16T21:01:56.630Z,17.39
2023-04-16T21:04:23.669Z,17.28
2023-04-16T21:06:53.480Z,17.26
2023-04-16T21:09:20.930Z,17.23
2023-04-16T21:11:48.148Z,17.21
2023-04-16T21:14:14.955Z,17.10
2023-04-16T21:16:41.685Z,17.04
2023-04-16T21:19:08.946Z,17.14
2023-04-16T21:21:36.560Z,17.15
2023-04-16T21:24:03.501Z,17.16
2023-04-16T21:26:30.321Z,17.19
2023-04-16T21:28:57.081Z,17.18
2023-04-16T21:31:23.852Z,17.10
2023-04-16T21:33:50.662Z,16.88
2023-04-16T21:36:17.415Z,16.80
2023-04-16T21:38:44.206Z,16.74
2023-04-16T21:41:11.362Z,16.67
2023-04-16T21:43:38.174Z,16.68
2023-04-16T21:46:05.038Z,16.68
2023-04-16T21:48:31.861Z,16.73
2023-04-16T21:51:01.092Z,16.74
2023-04-16T21:53:32.054Z,16.82
2023-04-16T21:55:59.351Z,16.83
2023-04-16T21:58:26.198Z,16.78
2023-04-16T22:00:53.413Z,16.78
2023-04-16T22:03:26.507Z,16.73
2023-04-16T22:06:00.725Z,16.78
2023-04-16T22:08:29.582Z,16.77
2023-04-16T22:10:58.236Z,16.79
2023-04-16T22:13:26.500Z,16.77
2023-04-16T22:15:54.892Z,16.75
2023-04-16T22:18:24.313Z,16.75
2023-04-16T22:20:55.738Z,16.73
2023-04-16T22:23:23.572Z,16.64
2023-04-16T22:25:51.811Z,16.58
2023-04-16T22:28:18.527Z,16.56
2023-04-16T22:30:45.423Z,16.56
2023-04-16T22:33:12.406Z,16.49
2023-04-16T22:35:39.241Z,16.30
2023-04-16T22:38:06.467Z,16.13
2023-04-16T22:40:33.240Z,16.19
2023-04-16T22:42:59.930Z,16.11
2023-04-16T22:45:27.377Z,16.10
2023-04-16T22:47:54.205Z,15.87
2023-04-16T22:50:21.019Z,15.79
2023-04-16T22:52:47.740Z,15.79
2023-04-16T22:55:14.693Z,15.69
2023-04-16T22:57:42.023Z,15.74
2023-04-16T23:00:15.582Z,15.73
2023-04-16T23:02:42.988Z,15.77
2023-04-16T23:05:10.811Z,15.72
2023-04-16T23:07:37.717Z,15.72
2023-04-16T23:10:04.903Z,15.68
2023-04-16T23:12:31.633Z,15.64
2023-04-16T23:15:00.695Z,15.66
2023-04-16T23:17:28.142Z,15.61
2023-04-16T23:19:54.950Z,15.61
2023-04-16T23:22:21.687Z,15.57
2023-04-16T23:24:48.567Z,15.50
2023-04-16T23:27:15.601Z,15.42
2023-04-16T23:29:42.377Z,15.45
2023-04-16T23:32:09.203Z,15.40
2023-04-16T23:34:36.223Z,15.44
2023-04-16T23:37:02.985Z,15.44
2023-04-16T23:39:29.789Z,15.43
2023-04-16T23:41:57.611Z,15.34
2023-04-16T23:44:24.401Z,15.30
2023-04-16T23:46:51.238Z,15.36
2023-04-16T23:49:18.116Z,15.26
2023-04-16T23:51:44.897Z,15.17
2023-04-16T23:54:11.684Z,15.20
2023-04-16T23:56:38.406Z,15.15
2023-04-16T23:59:05.300Z,15.06
